Time;durP1;ratioP1;P1;durP2;ratioP2;P2;SDS_P1;SDS_P2;PMS_P1;PMS_P2;Temp;Humidity;BMP_temperature;BMP_pressure;BME280_temperature;BME280_humidity;BME280_pressure;Samples;Min_cycle;Max_cycle;Signal;HPM_P1;HPM_P2
2023/10/20 00:00:06;;;;;;;4.78;4.15;;;;;;;11.99;100.00;90423.88;2095359;28;20028;-84
2023/10/20 00:01:07;;;;;;;6.10;4.60;;;;;;;11.99;100.00;90423.88;2090863;28;20024;-83
2023/10/20 00:02:08;;;;;;;5.53;4.07;;;;;;;12.03;100.00;90422.41;2098271;28;20055;-83
2023/10/20 00:03:09;;;;;;;6.93;3.88;;;;;;;11.98;100.00;90414.38;2108298;28;20024;-83
2023/10/20 00:04:10;;;;;;;8.32;4.65;;;;;;;11.96;100.00;90412.19;2106837;28;20191;-83
2023/10/20 00:05:11;;;;;;;6.13;4.90;;;;;;;11.95;100.00;90415.38;2085200;28;20110;-82
2023/10/20 00:06:14;;;;;;;4.85;4.32;;;;;;;12.00;100.00;90420.72;2081694;28;20033;-82
2023/10/20 00:07:15;;;;;;;5.22;4.22;;;;;;;12.11;100.00;90409.22;2089477;28;20071;-83
2023/10/20 00:08:16;;;;;;;5.78;4.75;;;;;;;12.14;100.00;90415.56;2095664;28;20102;-82
2023/10/20 00:09:18;;;;;;;8.18;4.15;;;;;;;12.10;100.00;90411.19;2090067;28;20036;-82
2023/10/20 00:10:18;;;;;;;5.88;4.47;;;;;;;12.13;100.00;90417.53;2087223;28;20025;-82
2023/10/20 00:11:19;;;;;;;5.82;4.65;;;;;;;12.14;100.00;90408.25;2090178;28;20044;-82
2023/10/20 00:12:21;;;;;;;8.77;4.68;;;;;;;12.14;100.00;90412.88;2096615;28;20043;-82
2023/10/20 00:13:22;;;;;;;5.88;4.40;;;;;;;12.23;100.00;90409.94;2091677;28;20025;-81
2023/10/20 00:14:23;;;;;;;5.60;4.18;;;;;;;12.16;100.00;90405.09;2087978;28;20393;-82
2023/10/20 00:15:24;;;;;;;10.10;4.70;;;;;;;12.14;100.00;90404.84;2101308;28;20056;-83
2023/10/20 00:16:28;;;;;;;6.22;4.70;;;;;;;12.14;100.00;90392.19;2106543;28;20028;-83
2023/10/20 00:17:30;;;;;;;6.88;4.28;;;;;;;12.13;100.00;90403.41;2090093;28;20119;-82
2023/10/20 00:18:31;;;;;;;6.30;4.72;;;;;;;12.03;100.00;90400.28;2081941;28;20021;-83
2023/10/20 00:19:35;;;;;;;6.22;3.92;;;;;;;12.08;100.00;90394.91;2090064;28;20441;-83
2023/10/20 00:20:35;;;;;;;7.15;4.57;;;;;;;12.13;100.00;90395.38;2090306;28;20037;-83
2023/10/20 00:21:39;;;;;;;5.88;4.60;;;;;;;12.08;100.00;90399.53;2089840;28;20111;-84
2023/10/20 00:22:40;;;;;;;7.00;4.35;;;;;;;12.08;100.00;90394.16;2090105;28;20029;-81
2023/10/20 00:23:41;;;;;;;6.72;4.10;;;;;;;12.04;100.00;90393.69;2086136;28;20178;-84
2023/10/20 00:24:45;;;;;;;7.78;4.85;;;;;;;12.01;100.00;90395.41;2081509;28;20410;-83
2023/10/20 00:25:46;;;;;;;5.47;4.20;;;;;;;12.04;100.00;90388.34;2089624;28;20052;-83
2023/10/20 00:26:47;;;;;;;6.00;4.22;;;;;;;12.03;100.00;90384.22;2099195;28;20107;-83
2023/10/20 00:27:48;;;;;;;6.95;4.82;;;;;;;12.00;100.00;90377.88;2091225;28;20094;-83
2023/10/20 00:28:49;;;;;;;11.77;4.65;;;;;;;12.00;100.00;90382.50;2092620;28;20093;-83
2023/10/20 00:29:50;;;;;;;7.30;4.25;;;;;;;12.04;100.00;90380.31;2097884;28;20063;-82
2023/10/20 00:30:51;;;;;;;9.20;5.15;;;;;;;12.03;100.00;90370.81;2098273;28;20020;-83
2023/10/20 00:31:52;;;;;;;7.90;4.28;;;;;;;12.07;100.00;90373.94;2094656;28;20446;-82
2023/10/20 00:32:53;;;;;;;7.72;4.55;;;;;;;12.08;100.00;90372.75;2098225;28;20027;-83
2023/10/20 00:33:55;;;;;;;7.35;4.57;;;;;;;12.07;100.00;90377.38;2097835;28;20024;-83
2023/10/20 00:34:57;;;;;;;7.30;4.80;;;;;;;12.15;100.00;90382.94;2081678;28;20493;-84
2023/10/20 00:35:58;;;;;;;9.55;4.60;;;;;;;12.12;100.00;90385.88;2090181;28;20024;-83
2023/10/20 00:36:59;;;;;;;4.97;4.20;;;;;;;12.06;100.00;90391.97;2110356;28;20011;-82
2023/10/20 00:38:07;;;;;;;4.85;4.10;;;;;;;12.14;100.00;90388.78;2106779;28;20036;-81
2023/10/20 00:39:08;;;;;;;7.03;4.43;;;;;;;12.07;100.00;90398.81;2095504;28;20096;-82
2023/10/20 00:40:10;;;;;;;5.32;3.83;;;;;;;12.18;100.00;90387.31;2096846;28;20059;-84
2023/10/20 00:41:13;;;;;;;5.15;4.15;;;;;;;12.14;100.00;90388.78;2106387;28;20337;-80
2023/10/20 00:42:14;;;;;;;6.00;3.83;;;;;;;12.00;100.00;90390.53;2098673;28;20032;-83
2023/10/20 00:43:15;;;;;;;8.13;4.05;;;;;;;12.02;100.00;90393.44;2098328;28;20654;-84
2023/10/20 00:44:16;;;;;;;9.40;5.20;;;;;;;11.87;100.00;90387.66;2098283;28;20024;-81
2023/10/20 00:45:17;;;;;;;5.93;4.22;;;;;;;11.95;100.00;90375.94;2102341;28;20023;-82
2023/10/20 00:46:18;;;;;;;7.35;4.55;;;;;;;12.01;100.00;90379.34;2106243;28;20038;-82
2023/10/20 00:47:20;;;;;;;5.38;4.40;;;;;;;12.04;100.00;90364.25;2097401;28;20040;-83
2023/10/20 00:48:21;;;;;;;5.82;4.45;;;;;;;12.07;100.00;90365.91;2090258;28;20025;-83
2023/10/20 00:49:22;;;;;;;5.90;4.45;;;;;;;12.04;100.00;90361.56;2089913;28;20186;-84
2023/10/20 00:50:23;;;;;;;6.82;4.80;;;;;;;12.10;100.00;90360.31;2089436;28;20048;-84
2023/10/20 00:51:24;;;;;;;7.75;4.53;;;;;;;12.04;100.00;90356.22;2090961;28;20429;-84
2023/10/20 00:52:26;;;;;;;5.90;4.63;;;;;;;12.03;100.00;90350.13;2087962;28;20473;-82
2023/10/20 00:53:28;;;;;;;5.32;4.30;;;;;;;12.03;100.00;90350.13;2098030;28;20047;-83
2023/10/20 00:54:30;;;;;;;7.13;5.05;;;;;;;12.04;100.00;90356.22;2105991;28;20496;-84
2023/10/20 00:55:32;;;;;;;8.43;4.13;;;;;;;12.03;100.00;90355.50;2105179;28;20686;-82
2023/10/20 00:56:33;;;;;;;8.57;4.90;;;;;;;11.99;100.00;90349.66;2097640;28;20020;-81
2023/10/20 00:57:36;;;;;;;4.85;4.35;;;;;;;12.00;100.00;90347.72;2106365;28;20407;-83
2023/10/20 00:58:37;;;;;;;9.55;4.70;;;;;;;12.07;100.00;90350.59;2112402;28;20030;-82
2023/10/20 00:59:38;;;;;;;6.57;4.38;;;;;;;12.12;100.00;90351.81;2114728;28;20141;-83
2023/10/20 01:00:39;;;;;;;8.68;5.22;;;;;;;12.12;100.00;90345.72;2100306;28;20020;-82
2023/10/20 01:01:40;;;;;;;8.07;4.90;;;;;;;12.13;100.00;90347.19;2098002;28;20020;-82
2023/10/20 01:02:41;;;;;;;7.93;5.00;;;;;;;12.09;100.00;90339.41;2106298;28;20024;-82
2023/10/20 01:03:43;;;;;;;11.60;5.25;;;;;;;12.08;100.00;90332.59;2097557;28;20021;-83
2023/10/20 01:04:44;;;;;;;6.60;4.70;;;;;;;12.08;100.00;90330.63;2106413;28;20031;-83
2023/10/20 01:05:46;;;;;;;6.68;5.03;;;;;;;12.04;100.00;90329.44;2106117;28;20374;-84
2023/10/20 01:06:49;;;;;;;5.30;4.47;;;;;;;11.97;100.00;90317.28;2089528;28;20025;-83
2023/10/20 01:07:50;;;;;;;5.55;4.43;;;;;;;12.03;100.00;90326.03;2098136;28;20503;-83
2023/10/20 01:08:57;;;;;;;8.27;5.20;;;;;;;12.01;100.00;90309.72;2097985;28;20140;-84
2023/10/20 01:10:04;;;;;;;6.13;4.78;;;;;;;12.06;100.00;90305.56;2106320;28;20405;-83
2023/10/20 01:11:05;;;;;;;6.75;4.53;;;;;;;12.01;100.00;90298.28;2098826;28;20032;-83
2023/10/20 01:12:07;;;;;;;6.13;4.57;;;;;;;11.90;100.00;90291.06;2100698;28;20020;-83
2023/10/20 01:13:08;;;;;;;6.32;4.97;;;;;;;11.97;100.00;90281.75;2089110;28;20087;-82
2023/10/20 01:14:09;;;;;;;8.80;4.93;;;;;;;12.07;100.00;90269.53;2096979;28;20024;-83
2023/10/20 01:15:14;;;;;;;6.65;5.25;;;;;;;11.98;100.00;90277.84;2105035;28;20024;-82
2023/10/20 01:16:15;;;;;;;7.60;4.72;;;;;;;12.05;100.00;90270.03;2106173;28;20030;-83
2023/10/20 01:17:16;;;;;;;9.65;5.60;;;;;;;12.13;100.00;90270.25;2105078;28;20073;-82
2023/10/20 01:18:17;;;;;;;11.27;5.55;;;;;;;12.10;100.00;90280.00;2097080;28;20020;-83
2023/10/20 01:19:18;;;;;;;7.25;4.72;;;;;;;12.13;100.00;90277.56;2090450;28;20025;-83
2023/10/20 01:20:19;;;;;;;10.48;5.78;;;;;;;12.11;100.00;90275.34;2086384;28;20108;-82
2023/10/20 01:21:20;;;;;;;9.10;5.70;;;;;;;12.14;100.00;90270.97;2106258;28;20031;-83
2023/10/20 01:22:21;;;;;;;8.27;5.20;;;;;;;12.15;100.00;90259.75;2105861;28;20107;-82
2023/10/20 01:23:22;;;;;;;12.05;6.20;;;;;;;12.12;100.00;90255.41;2106211;28;20028;-82
2023/10/20 01:24:23;;;;;;;10.82;5.82;;;;;;;12.04;100.00;90246.44;2097083;28;20131;-83
2023/10/20 01:25:26;;;;;;;7.72;5.25;;;;;;;12.14;100.00;90262.94;2089172;28;20021;-82
2023/10/20 01:26:29;;;;;;;7.50;5.90;;;;;;;12.14;100.00;90252.97;2090294;28;20025;-83
2023/10/20 01:27:30;;;;;;;10.65;6.13;;;;;;;12.10;100.00;90255.88;2084061;28;20025;-81
2023/10/20 01:28:31;;;;;;;11.40;6.45;;;;;;;12.12;100.00;90246.66;2089421;28;20021;-83
2023/10/20 01:29:32;;;;;;;9.00;5.93;;;;;;;12.05;100.00;90237.19;2089681;28;20095;-83
2023/10/20 01:30:33;;;;;;;11.52;5.85;;;;;;;12.07;100.00;90235.47;2100545;28;20428;-82
2023/10/20 01:31:34;;;;;;;10.93;6.57;;;;;;;12.04;100.00;90225.75;2097601;28;20108;-83
2023/10/20 01:32:35;;;;;;;9.52;6.00;;;;;;;12.08;100.00;90228.91;2099023;28;20016;-82
2023/10/20 01:33:36;;;;;;;9.48;6.05;;;;;;;12.02;100.00;90220.16;2097775;28;20020;-81
2023/10/20 01:34:37;;;;;;;9.00;5.68;;;;;;;12.04;100.00;90222.34;2089566;28;20032;-84
2023/10/20 01:35:38;;;;;;;10.35;6.32;;;;;;;12.04;100.00;90220.41;2097512;28;20252;-82
2023/10/20 01:36:39;;;;;;;11.95;6.25;;;;;;;12.06;100.00;90220.63;2106174;28;20081;-83
2023/10/20 01:37:41;;;;;;;10.02;6.28;;;;;;;12.12;100.00;90220.59;2089450;28;20377;-82
2023/10/20 01:38:42;;;;;;;10.10;6.07;;;;;;;12.13;100.00;90222.06;2092431;28;20353;-83
2023/10/20 01:39:43;;;;;;;8.40;6.22;;;;;;;12.24;100.00;90221.97;2097853;28;20021;-84
2023/10/20 01:40:47;;;;;;;8.38;6.30;;;;;;;12.20;100.00;90218.84;2097140;28;20027;-83
2023/10/20 01:41:48;;;;;;;10.73;5.90;;;;;;;12.20;100.00;90218.09;2090496;28;20025;-83
2023/10/20 01:42:49;;;;;;;11.77;6.00;;;;;;;12.19;100.00;90211.31;2097144;28;20051;-83
2023/10/20 01:43:50;;;;;;;9.82;6.75;;;;;;;12.25;100.00;90210.06;2105721;28;20051;-83
2023/10/20 01:44:50;;;;;;;12.52;7.38;;;;;;;12.29;100.00;90205.16;2105966;28;20024;-83
2023/10/20 01:45:53;;;;;;;11.65;7.05;;;;;;;12.29;100.00;90212.44;2089163;28;20040;-82
2023/10/20 01:46:54;;;;;;;8.43;6.70;;;;;;;12.23;100.00;90212.50;2105209;28;20066;-84
2023/10/20 01:47:55;;;;;;;12.27;6.63;;;;;;;12.20;100.00;90216.16;2097887;28;20016;-83
2023/10/20 01:48:56;;;;;;;10.95;7.25;;;;;;;12.20;100.00;90221.50;2108221;28;20693;-82
2023/10/20 01:49:57;;;;;;;13.73;7.63;;;;;;;12.19;100.00;90216.66;2095980;28;20365;-83
2023/10/20 01:50:59;;;;;;;12.77;7.40;;;;;;;12.14;100.00;90218.16;2097169;28;20051;-84
2023/10/20 01:52:01;;;;;;;10.27;7.15;;;;;;;12.17;100.00;90216.44;2096900;28;20021;-82
2023/10/20 01:53:04;;;;;;;10.35;6.82;;;;;;;12.17;100.00;90214.50;2097784;28;20134;-84
2023/10/20 01:54:06;;;;;;;9.68;6.45;;;;;;;12.13;100.00;90219.38;2093957;28;20020;-82
2023/10/20 01:55:08;;;;;;;11.07;7.38;;;;;;;12.14;100.00;90220.09;2114507;28;20061;-83
2023/10/20 01:56:09;;;;;;;12.07;6.85;;;;;;;12.05;100.00;90223.81;2105921;28;20020;-83
2023/10/20 01:57:10;;;;;;;9.98;6.90;;;;;;;12.03;100.00;90220.91;2105246;28;20067;-84
2023/10/20 01:58:11;;;;;;;9.73;6.10;;;;;;;12.15;100.00;90216.19;2097566;28;20035;-82
2023/10/20 01:59:12;;;;;;;11.48;6.88;;;;;;;12.10;100.00;90221.09;2097196;28;20039;-83
2023/10/20 02:00:13;;;;;;;8.40;6.40;;;;;;;12.13;100.00;90211.34;2089073;28;20059;-83
2023/10/20 02:01:14;;;;;;;11.18;7.32;;;;;;;12.18;100.00;90215.22;2089354;28;20017;-84
2023/10/20 02:02:15;;;;;;;9.60;6.50;;;;;;;12.20;100.00;90207.41;2100190;28;20012;-82
2023/10/20 02:03:16;;;;;;;12.05;6.47;;;;;;;12.17;100.00;90203.06;2097530;28;20062;-81
2023/10/20 02:04:17;;;;;;;9.80;6.38;;;;;;;12.14;100.00;90198.69;2097698;28;20429;-83
2023/10/20 02:05:18;;;;;;;10.52;6.75;;;;;;;12.10;100.00;90198.94;2097144;28;20031;-83
2023/10/20 02:06:19;;;;;;;10.18;6.03;;;;;;;12.17;100.00;90190.38;2097089;28;20109;-83
2023/10/20 02:07:20;;;;;;;10.63;7.03;;;;;;;12.18;100.00;90191.84;2097141;28;20507;-83
2023/10/20 02:08:21;;;;;;;9.90;6.57;;;;;;;12.15;100.00;90194.78;2097511;28;20322;-82
2023/10/20 02:09:25;;;;;;;8.82;6.57;;;;;;;12.12;100.00;90193.09;2097132;28;20032;-82
2023/10/20 02:10:26;;;;;;;11.68;7.22;;;;;;;12.14;100.00;90193.31;2097750;28;20020;-82
2023/10/20 02:11:27;;;;;;;9.35;6.88;;;;;;;12.11;100.00;90197.72;2089274;28;20112;-83
2023/10/20 02:12:28;;;;;;;12.25;7.38;;;;;;;12.02;100.00;90200.69;2094204;28;20071;-83
2023/10/20 02:13:29;;;;;;;10.00;6.82;;;;;;;12.06;100.00;90193.84;2097611;28;20024;-82
2023/10/20 02:14:30;;;;;;;10.23;7.43;;;;;;;12.10;100.00;90204.28;2095380;28;20048;-82
2023/10/20 02:15:31;;;;;;;12.65;6.93;;;;;;;12.13;100.00;90203.31;2097095;28;20024;-83
2023/10/20 02:16:33;;;;;;;12.30;7.05;;;;;;;12.10;100.00;90199.66;2106101;28;20138;-81
2023/10/20 02:17:34;;;;;;;13.32;6.90;;;;;;;12.08;100.00;90207.47;2097244;28;20480;-83
2023/10/20 02:18:36;;;;;;;12.55;7.00;;;;;;;12.11;100.00;90203.06;2089498;28;20378;-84
2023/10/20 02:19:37;;;;;;;10.38;7.18;;;;;;;12.15;100.00;90208.88;2090261;28;20032;-83
2023/10/20 02:20:38;;;;;;;11.15;6.57;;;;;;;12.19;100.00;90205.94;2090868;28;20465;-83
2023/10/20 02:23:41;;;;;;;11.95;7.03;;;;;;;11.49;100.00;90189.25;2141014;27;20189;-77
2023/10/20 02:24:44;;;;;;;16.20;7.82;;;;;;;11.64;100.00;90183.59;2129344;27;20098;-76
2023/10/20 02:25:45;;;;;;;9.55;7.03;;;;;;;11.68;100.00;90173.38;2121193;27;20055;-78
2023/10/20 02:26:46;;;;;;;11.75;7.18;;;;;;;11.59;100.00;90169.75;2121561;27;20030;-77
2023/10/20 02:27:48;;;;;;;13.68;7.00;;;;;;;11.58;100.00;90168.28;2115015;28;20453;-80
2023/10/20 02:28:49;;;;;;;11.65;7.22;;;;;;;11.59;100.00;90161.00;2121584;27;20019;-81
2023/10/20 02:29:50;;;;;;;11.77;7.57;;;;;;;11.53;100.00;90154.94;2121335;28;20053;-80
2023/10/20 02:30:51;;;;;;;11.98;7.55;;;;;;;11.51;100.00;90146.69;2120917;27;20072;-78
2023/10/20 02:31:51;;;;;;;11.85;7.55;;;;;;;11.56;100.00;90143.25;2129833;27;20019;-79
2023/10/20 02:32:54;;;;;;;13.90;7.03;;;;;;;11.42;100.00;90145.03;2122865;27;20094;-79
2023/10/20 02:33:55;;;;;;;12.48;7.25;;;;;;;11.49;100.00;90133.06;2123326;27;20019;-79
2023/10/20 02:34:56;;;;;;;14.63;7.88;;;;;;;11.52;100.00;90122.13;2130566;27;20037;-79
2023/10/20 02:35:57;;;;;;;13.20;7.10;;;;;;;11.47;100.00;90120.22;2125888;27;20080;-78
2023/10/20 02:36:59;;;;;;;15.07;7.75;;;;;;;11.44;100.00;90113.16;2112686;28;20073;-79
2023/10/20 02:38:00;;;;;;;12.52;7.97;;;;;;;11.40;100.00;90099.31;2120494;27;20033;-80
2023/10/20 02:39:01;;;;;;;17.33;7.63;;;;;;;11.40;100.00;90102.00;2123588;27;20023;-78
2023/10/20 02:40:06;;;;;;;12.77;7.88;;;;;;;11.44;100.00;90086.41;2104473;28;20085;-79
2023/10/20 02:41:07;;;;;;;10.48;7.47;;;;;;;11.41;100.00;90073.31;2113389;28;20146;-79
2023/10/20 02:42:08;;;;;;;14.57;7.82;;;;;;;11.45;100.00;90066.47;2125513;27;20038;-79
2023/10/20 02:43:09;;;;;;;13.15;7.85;;;;;;;11.44;100.00;90061.63;2129949;27;20019;-78
2023/10/20 02:44:10;;;;;;;11.10;7.47;;;;;;;11.47;100.00;90056.03;2128177;27;20031;-79
2023/10/20 02:45:11;;;;;;;13.48;7.45;;;;;;;11.51;100.00;90053.09;2129989;27;20412;-79
2023/10/20 02:46:12;;;;;;;12.05;7.40;;;;;;;11.52;100.00;90046.50;2123921;27;20030;-80
2023/10/20 02:47:14;;;;;;;11.93;7.05;;;;;;;11.58;100.00;90047.19;2121346;28;20046;-79
2023/10/20 02:48:15;;;;;;;14.05;7.65;;;;;;;11.55;100.00;90035.53;2129404;27;20022;-79
2023/10/20 02:49:16;;;;;;;13.60;7.22;;;;;;;11.60;100.00;90042.06;2120884;28;20024;-79
2023/10/20 02:50:17;;;;;;;12.30;7.22;;;;;;;11.55;100.00;90042.84;2112844;28;20056;-78
2023/10/20 02:51:18;;;;;;;9.52;6.78;;;;;;;11.60;100.00;90044.75;2121024;27;20016;-78
2023/10/20 02:52:19;;;;;;;10.85;7.28;;;;;;;11.68;100.00;90050.31;2121914;27;20093;-78
2023/10/20 02:53:20;;;;;;;10.68;7.13;;;;;;;11.67;100.00;90044.19;2122741;27;20460;-79
2023/10/20 02:54:21;;;;;;;12.63;7.30;;;;;;;11.73;100.00;90044.91;2126377;27;20015;-78
2023/10/20 02:55:25;;;;;;;11.85;6.90;;;;;;;11.72;100.00;90043.47;2120982;28;20023;-79
2023/10/20 02:56:26;;;;;;;12.55;7.07;;;;;;;11.71;100.00;90047.34;2113890;28;20145;-76
2023/10/20 02:57:27;;;;;;;10.50;7.15;;;;;;;11.59;100.00;90036.00;2120896;27;20096;-79
2023/10/20 02:58:28;;;;;;;11.73;7.60;;;;;;;11.66;100.00;90024.03;2121312;28;20379;-78
2023/10/20 02:59:29;;;;;;;13.15;7.15;;;;;;;11.66;100.00;90018.69;2120690;27;20080;-80
2023/10/20 03:00:30;;;;;;;14.15;7.97;;;;;;;11.71;100.00;90019.84;2121708;27;20076;-77
2023/10/20 03:01:31;;;;;;;9.82;6.95;;;;;;;11.73;100.00;90012.06;2121410;27;20058;-79
2023/10/20 03:02:32;;;;;;;11.43;7.53;;;;;;;11.61;100.00;90022.13;2121554;27;20053;-78
2023/10/20 03:03:33;;;;;;;11.35;7.25;;;;;;;11.57;100.00;90017.03;2121833;27;20073;-78
2023/10/20 03:04:35;;;;;;;9.98;6.88;;;;;;;11.57;100.00;90022.38;2124667;27;20050;-80
2023/10/20 03:05:37;;;;;;;12.68;7.00;;;;;;;11.64;100.00;90015.78;2121397;27;20460;-79
2023/10/20 03:06:38;;;;;;;14.70;7.13;;;;;;;11.68;100.00;90004.81;2122040;27;20107;-80
2023/10/20 03:07:39;;;;;;;11.43;6.30;;;;;;;11.67;100.00;89992.66;2120531;27;20023;-78
2023/10/20 03:08:40;;;;;;;9.15;5.90;;;;;;;11.70;100.00;89997.72;2124073;27;20026;-78
2023/10/20 03:09:41;;;;;;;12.70;6.55;;;;;;;11.59;100.00;90000.50;2126760;27;20059;-79
2023/10/20 03:10:48;;;;;;;12.73;6.40;;;;;;;11.59;100.00;90003.19;2130301;27;20368;-80
2023/10/20 03:11:49;;;;;;;12.63;6.20;;;;;;;11.58;100.00;89989.06;2130048;27;20027;-81
2023/10/20 03:12:50;;;;;;;8.80;6.32;;;;;;;11.57;100.00;89990.28;2127548;27;20019;-79
2023/10/20 03:13:51;;;;;;;14.02;6.35;;;;;;;11.50;100.00;89977.47;2112576;28;20024;-79
2023/10/20 03:14:51;;;;;;;9.52;6.38;;;;;;;11.46;100.00;89979.69;2120835;27;20344;-78
2023/10/20 03:15:53;;;;;;;12.02;5.72;;;;;;;11.50;100.00;89974.78;2126991;27;20027;-77
2023/10/20 03:16:54;;;;;;;8.15;6.38;;;;;;;11.38;100.00;89980.72;2127690;27;20069;-79
2023/10/20 03:17:55;;;;;;;10.75;5.90;;;;;;;11.37;100.00;89989.94;2118840;27;20026;-79
2023/10/20 03:18:56;;;;;;;10.93;6.65;;;;;;;11.42;100.00;89989.19;2114737;28;20124;-78
2023/10/20 03:19:57;;;;;;;16.38;7.13;;;;;;;11.38;100.00;89994.81;2120863;28;20023;-79
2023/10/20 03:21:02;;;;;;;11.73;7.40;;;;;;;11.41;100.00;90001.81;2112315;28;20061;-78
2023/10/20 03:22:03;;;;;;;15.95;7.15;;;;;;;11.49;100.00;90002.75;2112700;28;20031;-79
2023/10/20 03:23:04;;;;;;;9.52;6.93;;;;;;;11.53;100.00;89989.09;2124321;27;20050;-78
2023/10/20 03:24:05;;;;;;;8.80;6.22;;;;;;;11.48;100.00;89985.25;2121054;28;20472;-81
2023/10/20 03:25:08;;;;;;;10.93;6.75;;;;;;;11.40;100.00;89989.69;2117672;28;20496;-81
2023/10/20 03:26:13;;;;;;;12.65;7.00;;;;;;;11.34;100.00;89992.41;2120226;28;20106;-77
2023/10/20 03:27:13;;;;;;;12.38;7.88;;;;;;;11.42;100.00;89984.56;2112607;28;20117;-79
2023/10/20 03:28:15;;;;;;;12.45;7.32;;;;;;;11.49;100.00;89983.28;2112902;28;20020;-79
2023/10/20 03:29:16;;;;;;;13.02;7.82;;;;;;;11.46;100.00;89981.63;2112456;28;20024;-80
2023/10/20 03:30:17;;;;;;;15.43;8.38;;;;;;;11.47;100.00;89978.44;2117293;28;20030;-80
2023/10/20 03:31:19;;;;;;;13.98;8.15;;;;;;;11.45;100.00;89978.22;2120643;27;20490;-78
2023/10/20 03:32:19;;;;;;;9.90;7.72;;;;;;;11.52;100.00;89972.34;2121589;27;20066;-77
2023/10/20 03:33:20;;;;;;;13.50;8.07;;;;;;;11.50;100.00;89961.41;2116614;27;20368;-78
2023/10/20 03:34:21;;;;;;;11.57;8.63;;;;;;;11.44;100.00;89958.03;2119544;28;20110;-78
2023/10/20 03:35:22;;;;;;;11.13;7.88;;;;;;;11.39;100.00;89966.84;2113836;28;20019;-79
2023/10/20 03:36:23;;;;;;;13.52;8.45;;;;;;;11.40;100.00;89957.59;2114814;28;20042;-78
2023/10/20 03:37:24;;;;;;;13.15;8.20;;;;;;;11.40;100.00;89956.88;2106731;28;20031;-79
2023/10/20 03:38:25;;;;;;;11.82;7.43;;;;;;;11.42;100.00;89952.47;2102390;28;20021;-78
2023/10/20 03:39:27;;;;;;;12.75;7.50;;;;;;;11.47;100.00;89948.31;2115994;28;20028;-77
2023/10/20 03:40:36;;;;;;;14.15;8.00;;;;;;;11.37;100.00;89941.81;2115560;28;20657;-80
2023/10/20 03:41:37;;;;;;;11.55;8.63;;;;;;;11.47;100.00;89937.63;2114770;28;20480;-79
2023/10/20 03:42:38;;;;;;;8.80;7.40;;;;;;;11.39;100.00;89929.41;2114957;28;20074;-80
2023/10/20 03:43:39;;;;;;;13.48;8.18;;;;;;;11.37;100.00;89929.19;2099375;28;20016;-78
2023/10/20 03:44:40;;;;;;;12.80;7.78;;;;;;;11.38;100.00;89927.97;2102203;28;20059;-80
2023/10/20 03:45:46;;;;;;;13.35;8.20;;;;;;;11.32;100.00;89924.59;2115574;28;20027;-79
2023/10/20 03:46:49;;;;;;;13.77;8.45;;;;;;;11.37;100.00;89925.75;2109575;28;20024;-79
2023/10/20 03:47:50;;;;;;;9.70;7.70;;;;;;;11.43;100.00;89926.47;2098136;28;20788;-78
2023/10/20 03:48:51;;;;;;;10.32;7.57;;;;;;;11.35;100.00;89910.94;2106502;28;20028;-81
2023/10/20 03:49:52;;;;;;;11.10;8.68;;;;;;;11.33;100.00;89904.66;2097793;28;20028;-78
2023/10/20 03:50:54;;;;;;;10.85;7.75;;;;;;;11.38;100.00;89903.88;2106426;28;20027;-79
2023/10/20 03:52:11;;;;;;;10.95;8.00;;;;;;;11.39;100.00;89909.97;2111454;28;20042;-80
2023/10/20 03:53:18;;;;;;;10.05;7.50;;;;;;;11.43;100.00;89921.13;2111083;28;20036;-79
2023/10/20 03:54:24;;;;;;;12.15;7.70;;;;;;;11.43;100.00;89916.50;2115109;28;20023;-79
2023/10/20 03:55:26;;;;;;;10.93;8.23;;;;;;;11.39;100.00;89916.03;2106950;28;20027;-78
2023/10/20 03:56:27;;;;;;;12.32;8.88;;;;;;;11.40;100.00;89908.72;2106653;28;20609;-77
2023/10/20 03:57:29;;;;;;;11.05;7.95;;;;;;;11.40;100.00;89906.78;2106711;28;20071;-80
2023/10/20 03:58:30;;;;;;;12.48;7.95;;;;;;;11.37;100.00;89899.03;2114999;28;20377;-78
2023/10/20 03:59:34;;;;;;;13.82;7.82;;;;;;;11.40;100.00;89901.44;2115741;28;20032;-78
2023/10/20 04:00:37;;;;;;;13.68;8.25;;;;;;;11.45;100.00;89900.66;2114666;28;20065;-78
2023/10/20 04:01:40;;;;;;;10.82;7.50;;;;;;;11.37;100.00;89899.78;2114741;28;20110;-78
2023/10/20 04:02:41;;;;;;;10.98;7.22;;;;;;;11.35;100.00;89889.56;2115766;28;20092;-79
2023/10/20 04:03:50;;;;;;;11.68;7.70;;;;;;;11.31;100.00;89886.44;2115268;28;20023;-79
2023/10/20 04:04:51;;;;;;;11.40;7.35;;;;;;;11.38;100.00;89901.22;2114782;28;20333;-79
2023/10/20 04:05:53;;;;;;;12.88;7.97;;;;;;;11.36;100.00;89895.63;2106740;28;20019;-79
2023/10/20 04:06:54;;;;;;;13.10;7.65;;;;;;;11.34;100.00;89898.81;2112458;28;20357;-79
2023/10/20 04:07:55;;;;;;;12.43;7.82;;;;;;;11.32;100.00;89900.53;2115520;28;20031;-78
2023/10/20 04:08:57;;;;;;;9.77;6.88;;;;;;;11.31;100.00;89897.13;2113901;28;20125;-77
2023/10/20 04:09:59;;;;;;;10.73;7.82;;;;;;;11.35;100.00;89896.84;2106300;28;20114;-77
2023/10/20 04:11:00;;;;;;;9.75;7.72;;;;;;;11.33;100.00;89894.69;2114828;28;20037;-79
2023/10/20 04:12:01;;;;;;;10.18;7.50;;;;;;;11.34;100.00;89892.75;2114499;28;20111;-80
2023/10/20 04:13:02;;;;;;;9.32;6.95;;;;;;;11.32;100.00;89885.19;2114949;28;20475;-78
2023/10/20 04:14:06;;;;;;;12.15;8.80;;;;;;;11.40;100.00;89877.38;2106341;28;20448;-81
2023/10/20 04:15:25;;;;;;;14.50;7.82;;;;;;;11.36;100.00;89871.56;2106173;28;20435;-79
2023/10/20 04:16:27;;;;;;;12.25;7.18;;;;;;;11.40;100.00;89866.66;2107386;28;20024;-79
2023/10/20 04:17:28;;;;;;;11.07;7.80;;;;;;;11.27;100.00;89861.19;2114659;28;20699;-77
2023/10/20 04:18:32;;;;;;;17.00;8.75;;;;;;;11.33;100.00;89861.88;2111069;28;20032;-77
2023/10/20 04:19:33;;;;;;;24.00;9.70;;;;;;;11.33;100.00;89861.88;2106510;28;20082;-77
2023/10/20 04:20:41;;;;;;;21.00;9.98;;;;;;;11.35;100.00;89854.06;2113221;28;20020;-77
2023/10/20 04:21:43;;;;;;;20.90;10.25;;;;;;;11.30;100.00;89850.22;2122166;27;20157;-78
2023/10/20 04:22:49;;;;;;;18.63;9.68;;;;;;;11.27;100.00;89853.91;2115388;28;20153;-79
2023/10/20 04:23:50;;;;;;;17.50;8.82;;;;;;;11.27;100.00;89851.22;2114234;28;20384;-80
2023/10/20 04:24:51;;;;;;;18.45;9.27;;;;;;;11.32;100.00;89852.41;2114608;28;20028;-78
2023/10/20 04:25:55;;;;;;;21.08;9.10;;;;;;;11.22;100.00;89846.66;2114256;28;20024;-79
2023/10/20 04:26:56;;;;;;;17.98;8.80;;;;;;;11.33;100.00;89835.16;2106707;28;20032;-79
2023/10/20 04:27:57;;;;;;;20.95;10.75;;;;;;;11.28;100.00;89844.66;2111904;28;20020;-78
2023/10/20 04:50:56;;;;;;;12.02;9.10;;;;;;;11.38;100.00;89762.16;2114483;28;20111;-78
2023/10/20 04:53:11;;;;;;;12.85;8.13;;;;;;;11.35;100.00;89747.84;2105664;28;20717;-78
2023/10/20 04:57:19;;;;;;;11.75;8.13;;;;;;;11.31;100.00;89727.97;2111147;28;20020;-79
2023/10/20 04:58:38;;;;;;;16.20;8.40;;;;;;;11.32;100.00;89718.69;2106022;28;20131;-79
2023/10/20 04:59:39;;;;;;;16.45;8.45;;;;;;;11.38;100.00;89705.28;2113979;28;20031;-77
2023/10/20 05:00:43;;;;;;;17.15;8.52;;;;;;;11.44;100.00;89708.63;2114967;28;20085;-78
2023/10/20 05:01:49;;;;;;;14.40;8.40;;;;;;;11.38;100.00;89702.63;2111213;28;20039;-78
2023/10/20 05:03:56;;;;;;;16.30;9.95;;;;;;;11.15;100.00;89699.44;2107474;28;20020;-76
2023/10/20 05:04:57;;;;;;;19.27;10.77;;;;;;;11.23;100.00;89684.28;2107093;28;20024;-77
2023/10/20 05:07:26;;;;;;;15.02;9.00;;;;;;;11.20;100.00;89655.91;2113690;28;20499;-80
2023/10/20 05:08:28;;;;;;;12.48;8.18;;;;;;;11.26;100.00;89645.88;2112367;28;20568;-78
2023/10/20 05:09:32;;;;;;;14.27;8.18;;;;;;;11.31;100.00;89651.13;2106108;28;20590;-78
2023/10/20 05:10:33;;;;;;;12.52;8.05;;;;;;;11.25;100.00;89639.81;2099619;28;20025;-77
2023/10/20 05:11:34;;;;;;;12.30;8.25;;;;;;;11.27;100.00;89641.97;2106742;28;20032;-77
2023/10/20 05:12:35;;;;;;;12.05;7.45;;;;;;;11.24;100.00;89643.00;2114512;28;20053;-77
2023/10/20 05:13:37;;;;;;;14.95;8.95;;;;;;;11.32;100.00;89655.25;2110844;28;20434;-78
2023/10/20 05:14:38;;;;;;;13.43;7.85;;;;;;;11.25;100.00;89655.84;2106558;28;20380;-77
2023/10/20 05:15:40;;;;;;;10.80;7.38;;;;;;;11.27;100.00;89647.31;2111431;28;20019;-79